Time;durP1;ratioP1;P1;durP2;ratioP2;P2;SDS_P1;SDS_P2;PMS_P1;PMS_P2;Temp;Humidity;BMP_temperature;BMP_pressure;BME280_temperature;BME280_humidity;BME280_pressure;Samples;Min_cycle;Max_cycle;Signal;HPM_P1;HPM_P2
2024/01/18 06:02:34;;;;;;;3.30;2.67;;;11.00;83.50;;;;;;677738;23;20513;31
2024/01/18 06:05:00;;;;;;;4.07;2.87;;;11.10;83.80;;;;;;4927564;29;20305;-74
2024/01/18 06:07:26;;;;;;;3.73;2.70;;;11.10;83.80;;;;;;4899423;29;20213;-74
2024/01/18 06:09:52;;;;;;;3.23;2.73;;;11.10;83.80;;;;;;4897940;29;20188;-74
2024/01/18 06:12:20;;;;;;;3.23;2.60;;;11.10;83.90;;;;;;4898981;29;20185;-74
2024/01/18 06:14:45;;;;;;;4.10;2.73;;;11.10;84.00;;;;;;4901922;29;20185;-74
2024/01/18 06:17:11;;;;;;;3.10;2.70;;;11.10;84.00;;;;;;4903221;29;20192;-74
2024/01/18 06:19:37;;;;;;;4.27;3.10;;;11.10;84.40;;;;;;4897052;29;20468;-75
2024/01/18 06:22:04;;;;;;;5.20;2.87;;;11.10;84.50;;;;;;4900185;29;20195;-75
2024/01/18 06:24:30;;;;;;;3.07;2.60;;;11.10;84.90;;;;;;4910781;29;20204;-75
2024/01/18 06:26:56;;;;;;;3.90;2.77;;;11.10;85.00;;;;;;4918439;29;20668;-75
2024/01/18 06:29:29;;;;;;;2.87;2.50;;;11.10;84.90;;;;;;4918523;29;20584;-75
2024/01/18 06:31:54;;;;;;;3.23;2.57;;;11.10;84.80;;;;;;4911517;29;20185;-75
2024/01/18 06:34:20;;;;;;;4.93;2.90;;;11.10;84.90;;;;;;4897757;29;20185;-75
2024/01/18 06:36:46;;;;;;;4.10;2.93;;;11.10;84.90;;;;;;4918851;29;20638;-75
2024/01/18 06:39:11;;;;;;;4.40;2.93;;;11.10;84.90;;;;;;4917329;29;20189;-75
2024/01/18 06:41:37;;;;;;;3.53;2.80;;;11.10;84.90;;;;;;4911772;29;20214;-75
2024/01/18 06:44:05;;;;;;;3.70;3.10;;;11.20;85.00;;;;;;4910239;29;20216;-75
2024/01/18 06:46:31;;;;;;;4.10;2.90;;;11.10;85.30;;;;;;4916191;29;20193;-75
2024/01/18 06:48:57;;;;;;;3.40;3.10;;;11.10;85.20;;;;;;4916674;29;20275;-75
2024/01/18 06:51:30;;;;;;;4.73;2.90;;;11.10;85.20;;;;;;4912922;29;20192;-75
2024/01/18 06:53:56;;;;;;;4.13;3.03;;;11.10;85.10;;;;;;4918635;29;20265;-75
2024/01/18 06:56:21;;;;;;;4.40;3.40;;;11.10;84.90;;;;;;4932387;29;20693;-75
2024/01/18 06:58:47;;;;;;;4.73;3.47;;;11.10;85.00;;;;;;4929895;29;20285;-75
2024/01/18 07:01:14;;;;;;;5.57;3.37;;;11.10;85.00;;;;;;4923945;29;20246;-75
2024/01/18 07:03:41;;;;;;;4.87;3.37;;;11.20;85.20;;;;;;4922404;29;20223;-75
2024/01/18 07:06:07;;;;;;;4.63;3.53;;;11.20;85.70;;;;;;4922784;29;20211;-75
2024/01/18 07:08:34;;;;;;;4.93;3.60;;;11.20;85.70;;;;;;4921960;29;20419;-75
2024/01/18 07:11:01;;;;;;;9.20;3.70;;;11.20;86.20;;;;;;4908413;29;20240;-75
2024/01/18 07:13:28;;;;;;;5.13;3.80;;;11.20;86.20;;;;;;4923735;29;20603;-75
2024/01/18 07:15:54;;;;;;;4.87;4.00;;;11.20;86.60;;;;;;4924465;29;20241;-75
2024/01/18 07:18:19;;;;;;;9.60;3.87;;;11.20;86.50;;;;;;4924623;29;20244;-74
2024/01/18 07:20:45;;;;;;;5.63;3.80;;;11.20;86.40;;;;;;4924698;29;20538;-75
2024/01/18 07:23:11;;;;;;;8.70;3.73;;;11.20;86.20;;;;;;4925436;29;20218;-75
2024/01/18 07:25:40;;;;;;;5.73;3.77;;;11.20;86.20;;;;;;4925779;29;20224;-75
2024/01/18 07:28:06;;;;;;;7.97;3.97;;;11.20;86.10;;;;;;4924620;29;20181;-75
2024/01/18 07:30:31;;;;;;;6.67;3.83;;;11.20;86.10;;;;;;4923496;29;20187;-75
2024/01/18 07:32:58;;;;;;;5.13;3.70;;;11.20;85.90;;;;;;4927560;29;20794;-75
2024/01/18 07:35:24;;;;;;;6.27;4.17;;;11.20;85.70;;;;;;4927865;29;20190;-75
2024/01/18 07:37:58;;;;;;;7.03;4.03;;;11.20;85.70;;;;;;4928989;29;20232;-76
2024/01/18 07:40:24;;;;;;;5.87;4.10;;;11.20;85.50;;;;;;4928926;29;20205;-75
2024/01/18 07:42:51;;;;;;;5.40;3.80;;;11.20;85.40;;;;;;4929146;29;20579;-75
2024/01/18 07:45:17;;;;;;;7.27;3.90;;;11.30;85.50;;;;;;4931567;29;20571;-75
2024/01/18 07:47:44;;;;;;;6.43;4.43;;;11.20;85.30;;;;;;4931588;29;20188;-75
2024/01/18 07:50:09;;;;;;;5.17;4.10;;;11.20;85.20;;;;;;4930617;29;20582;-75
2024/01/18 07:52:36;;;;;;;7.33;4.27;;;11.20;85.10;;;;;;4929645;29;20204;-74
2024/01/18 07:55:05;;;;;;;7.40;4.13;;;11.20;85.10;;;;;;4927866;29;20387;-74
2024/01/18 07:57:31;;;;;;;5.20;4.17;;;11.20;85.00;;;;;;4927477;29;20531;-75
2024/01/18 07:59:57;;;;;;;6.43;3.93;;;11.20;85.00;;;;;;4928267;29;20195;-74
2024/01/18 08:02:22;;;;;;;6.43;4.03;;;11.20;84.90;;;;;;4929161;29;20589;-74
2024/01/18 08:04:48;;;;;;;6.17;4.10;;;11.20;84.90;;;;;;4927583;29;20221;-74
2024/01/18 08:07:15;;;;;;;5.87;4.37;;;11.30;85.00;;;;;;4929220;29;20604;-75
2024/01/18 08:09:41;;;;;;;4.97;4.00;;;11.30;84.90;;;;;;4927220;29;20249;-75
2024/01/18 08:12:07;;;;;;;6.23;4.40;;;11.30;84.70;;;;;;4930398;29;20275;-74
2024/01/18 08:14:33;;;;;;;8.07;3.93;;;11.30;84.80;;;;;;4914199;29;20190;-75
2024/01/18 08:16:59;;;;;;;5.30;4.10;;;11.30;84.70;;;;;;4929105;29;20203;-74
2024/01/18 08:19:25;;;;;;;4.13;3.63;;;11.30;84.60;;;;;;4928760;29;20184;-74
2024/01/18 08:21:50;;;;;;;4.17;3.57;;;11.30;84.60;;;;;;4930063;29;20196;-75
2024/01/18 08:24:16;;;;;;;5.87;3.97;;;11.30;84.50;;;;;;4931511;29;20219;-75
2024/01/18 08:26:43;;;;;;;4.47;3.93;;;11.30;84.50;;;;;;4932017;29;20662;-75
2024/01/18 08:29:09;;;;;;;6.03;4.07;;;11.30;84.50;;;;;;4930793;29;20193;-74
2024/01/18 08:31:35;;;;;;;6.83;3.90;;;11.30;84.40;;;;;;4927986;29;20182;-74
2024/01/18 08:34:00;;;;;;;4.43;3.60;;;11.30;84.30;;;;;;4929786;29;20199;-74
2024/01/18 08:36:26;;;;;;;5.20;4.10;;;11.40;84.10;;;;;;4899119;29;20281;-75
2024/01/18 08:38:54;;;;;;;5.83;4.10;;;11.40;83.80;;;;;;4928734;29;20275;-75
2024/01/18 08:41:20;;;;;;;4.57;3.83;;;11.40;83.70;;;;;;4927294;29;20253;-75
2024/01/18 08:43:47;;;;;;;5.47;4.03;;;11.40;83.60;;;;;;4896128;29;20225;-75
2024/01/18 08:46:14;;;;;;;5.70;4.20;;;11.40;83.40;;;;;;4928306;29;20530;-75
2024/01/18 08:48:40;;;;;;;6.03;4.03;;;11.70;82.60;;;;;;4927601;29;20574;-75
2024/01/18 08:51:12;;;;;;;5.17;4.10;;;11.80;81.20;;;;;;4928064;29;20191;-75
2024/01/18 08:53:40;;;;;;;5.93;4.10;;;11.90;80.70;;;;;;4928118;29;20444;-75
2024/01/18 08:56:06;;;;;;;5.43;4.10;;;12.20;79.00;;;;;;4927000;29;20198;-75
2024/01/18 08:58:32;;;;;;;4.90;3.80;;;12.60;77.10;;;;;;4925123;29;20250;-75
2024/01/18 09:00:58;;;;;;;4.53;4.00;;;12.70;75.30;;;;;;4925776;29;20194;-75
2024/01/18 09:03:24;;;;;;;5.40;3.80;;;12.90;74.40;;;;;;4927800;29;20229;-75
2024/01/18 09:05:50;;;;;;;4.13;3.73;;;13.10;73.00;;;;;;4928631;29;20250;-75
2024/01/18 09:08:16;;;;;;;5.93;4.10;;;13.20;72.20;;;;;;4927837;29;20211;-75
2024/01/18 09:10:42;;;;;;;6.23;4.43;;;13.40;71.20;;;;;;4927064;29;20279;-75
2024/01/18 09:13:07;;;;;;;6.80;4.50;;;13.60;70.20;;;;;;4925399;29;20185;-75
2024/01/18 09:15:35;;;;;;;4.80;4.33;;;13.70;69.00;;;;;;4925528;29;20181;-75
2024/01/18 09:18:01;;;;;;;5.03;4.40;;;13.80;67.80;;;;;;4925150;29;20187;-75
2024/01/18 09:20:27;;;;;;;6.90;4.90;;;13.80;67.30;;;;;;4926053;29;20292;-75
2024/01/18 09:22:52;;;;;;;6.30;4.80;;;13.90;66.40;;;;;;4912101;29;20271;-75
2024/01/18 09:25:19;;;;;;;7.43;5.40;;;14.00;65.40;;;;;;4926381;29;20478;-75
2024/01/18 09:27:44;;;;;;;6.47;5.40;;;14.10;64.50;;;;;;4895812;29;20235;-75
2024/01/18 09:30:12;;;;;;;6.93;5.67;;;14.00;63.80;;;;;;4926771;29;20181;-75
2024/01/18 09:32:39;;;;;;;7.90;6.33;;;13.80;63.60;;;;;;4926437;29;20181;-75
2024/01/18 09:35:05;;;;;;;8.93;6.53;;;13.60;63.50;;;;;;4924326;29;20195;-75
2024/01/18 09:37:31;;;;;;;8.93;6.80;;;13.50;64.00;;;;;;4925727;29;20197;-75
2024/01/18 09:39:57;;;;;;;7.87;6.83;;;13.30;64.50;;;;;;4926262;29;20192;-75
2024/01/18 09:42:30;;;;;;;8.90;7.50;;;13.10;65.10;;;;;;4928776;29;20437;-75
2024/01/18 09:45:00;;;;;;;10.47;8.20;;;13.00;65.70;;;;;;4930048;29;20714;-75
2024/01/18 09:47:26;;;;;;;8.17;7.37;;;12.80;66.30;;;;;;4927353;29;20550;-75
2024/01/18 09:49:54;;;;;;;9.67;8.20;;;12.70;67.10;;;;;;4926267;29;20188;-75
2024/01/18 09:52:20;;;;;;;8.93;7.70;;;12.60;67.90;;;;;;4913153;29;20423;-75
2024/01/18 09:54:47;;;;;;;9.43;7.67;;;12.60;68.70;;;;;;4925284;29;20475;-75
2024/01/18 09:57:17;;;;;;;10.70;8.40;;;12.50;69.00;;;;;;4894573;29;20181;-75
2024/01/18 09:59:47;;;;;;;9.40;8.00;;;12.50;69.10;;;;;;4925373;29;20368;-75
2024/01/18 10:02:13;;;;;;;10.83;8.53;;;12.50;69.30;;;;;;4926169;29;20547;-76
2024/01/18 10:04:40;;;;;;;9.63;8.10;;;12.50;69.50;;;;;;4922722;29;20212;-76
2024/01/18 10:07:08;;;;;;;9.03;7.80;;;12.50;69.80;;;;;;4926271;29;20752;-76
2024/01/18 10:09:34;;;;;;;8.63;7.83;;;12.50;70.20;;;;;;4912090;29;20177;-76
2024/01/18 10:12:01;;;;;;;9.23;7.47;;;12.50;70.40;;;;;;4927520;29;20196;-76
2024/01/18 10:14:42;;;;;;;11.20;8.07;;;12.60;70.70;;;;;;4926650;29;20185;-76
2024/01/18 10:17:10;;;;;;;10.20;7.50;;;12.60;70.80;;;;;;4927316;29;20228;-76
2024/01/18 10:19:36;;;;;;;9.10;7.60;;;12.60;71.00;;;;;;4926963;29;20293;-76
2024/01/18 10:22:03;;;;;;;8.47;6.97;;;12.60;71.90;;;;;;4925547;29;20196;-76
2024/01/18 10:24:29;;;;;;;7.83;6.87;;;12.60;71.30;;;;;;4926077;29;20579;-76
2024/01/18 10:27:03;;;;;;;8.83;7.27;;;12.60;71.40;;;;;;4925538;29;20547;-76
2024/01/18 10:29:35;;;;;;;9.13;7.20;;;12.60;71.50;;;;;;4925650;29;20292;-75
2024/01/18 10:32:04;;;;;;;8.43;6.40;;;12.70;71.60;;;;;;4912678;29;20169;-75
2024/01/18 10:34:37;;;;;;;9.13;7.13;;;12.70;71.70;;;;;;4927100;29;20188;-76
2024/01/18 10:37:06;;;;;;;7.73;6.50;;;12.70;71.80;;;;;;4926837;29;20292;-76
2024/01/18 10:39:42;;;;;;;7.20;6.50;;;12.70;72.00;;;;;;4927131;29;20189;-76
2024/01/18 10:42:12;;;;;;;8.67;6.43;;;12.70;72.00;;;;;;4928910;29;20189;-75
2024/01/18 10:44:45;;;;;;;7.33;6.20;;;12.70;72.30;;;;;;4928522;29;20247;-75
2024/01/18 10:47:12;;;;;;;7.43;6.53;;;12.70;72.40;;;;;;4928054;29;20188;-75
2024/01/18 10:49:40;;;;;;;9.13;6.47;;;12.70;72.50;;;;;;4926562;29;20551;-75
2024/01/18 10:52:08;;;;;;;7.47;6.37;;;12.70;72.50;;;;;;4926809;29;20209;-76
2024/01/18 10:54:34;;;;;;;6.50;5.63;;;12.70;72.50;;;;;;4922221;29;20447;-75
2024/01/18 10:57:00;;;;;;;6.80;5.77;;;12.70;72.50;;;;;;4923076;29;20630;-75
2024/01/18 10:59:30;;;;;;;7.97;6.40;;;12.70;72.60;;;;;;4922877;29;20192;-75
2024/01/18 11:02:00;;;;;;;6.97;6.20;;;12.70;72.70;;;;;;4923435;29;20256;-76
2024/01/18 11:04:27;;;;;;;6.83;5.90;;;12.70;72.80;;;;;;4925847;29;20487;-76
2024/01/18 11:06:57;;;;;;;6.77;5.83;;;12.70;72.80;;;;;;4924733;29;20302;-75
2024/01/18 11:09:29;;;;;;;6.90;6.10;;;12.70;72.90;;;;;;4923388;29;20387;-75
2024/01/18 11:11:57;;;;;;;7.07;5.43;;;12.70;73.00;;;;;;4923947;29;20181;-75
2024/01/18 11:14:24;;;;;;;6.97;5.83;;;12.70;73.00;;;;;;4910149;29;20662;-75
2024/01/18 11:16:50;;;;;;;7.43;6.00;;;12.70;72.90;;;;;;4922141;29;20183;-76
2024/01/18 11:19:39;;;;;;;6.37;5.50;;;12.70;72.90;;;;;;4921849;29;20397;-76
2024/01/18 11:22:08;;;;;;;7.10;5.60;;;12.70;73.00;;;;;;4923887;29;20184;-76
2024/01/18 11:24:34;;;;;;;7.30;5.17;;;12.70;73.20;;;;;;4923942;29;20285;-76
2024/01/18 11:27:00;;;;;;;6.87;5.37;;;12.70;73.40;;;;;;4922919;29;20396;-76
2024/01/18 11:29:26;;;;;;;7.10;5.80;;;12.70;73.50;;;;;;4923851;29;20259;-76
2024/01/18 11:31:52;;;;;;;6.77;5.50;;;12.70;73.60;;;;;;4891164;29;20193;-76
2024/01/18 11:34:34;;;;;;;5.97;5.13;;;12.70;73.70;;;;;;4891711;29;20188;-75
2024/01/18 11:37:24;;;;;;;9.47;5.73;;;12.70;73.90;;;;;;4890854;29;20250;-76
2024/01/18 11:39:50;;;;;;;6.87;5.57;;;12.70;74.00;;;;;;4891558;29;20184;-76
2024/01/18 11:42:20;;;;;;;6.50;5.13;;;12.70;74.00;;;;;;4893383;29;20185;-75
2024/01/18 11:45:14;;;;;;;6.30;4.80;;;12.70;74.20;;;;;;4891391;29;20726;-76
2024/01/18 11:47:40;;;;;;;7.20;5.00;;;12.70;74.20;;;;;;4893944;29;20184;-75
2024/01/18 11:50:10;;;;;;;7.17;4.87;;;12.70;74.30;;;;;;4893633;29;20307;-76
2024/01/18 11:52:45;;;;;;;7.60;5.40;;;12.70;74.50;;;;;;4894768;29;20278;-75
2024/01/18 11:55:12;;;;;;;7.90;5.37;;;12.70;74.50;;;;;;4894004;29;20258;-76
2024/01/18 11:57:38;;;;;;;7.33;4.90;;;12.70;74.60;;;;;;4893187;29;20199;-76
2024/01/18 12:00:04;;;;;;;7.97;5.23;;;12.70;74.60;;;;;;4898728;29;20198;-75
2024/01/18 12:02:37;;;;;;;6.50;5.20;;;12.70;74.70;;;;;;4900506;29;20197;-75
2024/01/18 12:05:04;;;;;;;6.30;4.97;;;12.70;74.70;;;;;;4899074;29;20284;-75
2024/01/18 12:07:32;;;;;;;7.60;5.17;;;12.70;74.80;;;;;;4894824;29;20183;-75
2024/01/18 12:09:57;;;;;;;6.30;4.83;;;12.70;74.80;;;;;;4890828;29;20470;-75
2024/01/18 12:12:24;;;;;;;6.77;4.60;;;12.70;74.90;;;;;;4889455;29;20364;-75
2024/01/18 12:14:50;;;;;;;8.00;5.20;;;12.70;75.00;;;;;;4888560;29;20619;-75
2024/01/18 12:17:16;;;;;;;6.30;4.73;;;12.70;75.00;;;;;;4890868;29;20192;-75
2024/01/18 12:19:44;;;;;;;7.00;5.47;;;12.60;75.00;;;;;;4895568;29;20285;-75
2024/01/18 12:22:17;;;;;;;7.00;5.20;;;12.60;75.00;;;;;;4895531;29;20229;-75
2024/01/18 12:24:43;;;;;;;6.57;5.00;;;12.70;75.10;;;;;;4894720;29;20585;-75
2024/01/18 12:27:09;;;;;;;6.50;5.13;;;12.70;75.30;;;;;;4897621;29;20224;-75
2024/01/18 12:29:40;;;;;;;6.83;4.93;;;12.60;75.20;;;;;;4947978;28;20199;-76
2024/01/18 12:32:24;;;;;;;9.87;5.17;;;12.60;75.30;;;;;;4916265;29;20584;-75
2024/01/18 12:34:49;;;;;;;6.67;5.03;;;12.60;75.40;;;;;;4909625;29;20276;-75
2024/01/18 12:37:16;;;;;;;8.23;4.73;;;12.60;75.60;;;;;;4906945;29;20497;-75
2024/01/18 12:39:41;;;;;;;5.10;4.60;;;12.60;75.50;;;;;;4907792;29;20192;-74
2024/01/18 12:42:08;;;;;;;5.43;4.50;;;12.60;75.70;;;;;;4909281;29;20223;-76
2024/01/18 12:44:34;;;;;;;5.87;4.67;;;12.60;75.70;;;;;;4914130;29;20218;-75
2024/01/18 12:46:59;;;;;;;6.03;4.67;;;12.60;75.70;;;;;;4915914;29;20237;-75
2024/01/18 12:49:25;;;;;;;5.80;4.70;;;12.60;75.70;;;;;;4916783;29;20195;-75
2024/01/18 12:51:59;;;;;;;5.93;4.73;;;12.60;75.70;;;;;;4911077;29;20257;-75
2024/01/18 12:54:28;;;;;;;6.17;4.60;;;12.60;75.70;;;;;;4909596;29;20191;-75
2024/01/18 12:56:59;;;;;;;6.47;4.87;;;12.60;75.80;;;;;;4895724;29;20402;-75
2024/01/18 12:59:26;;;;;;;5.57;4.57;;;12.60;75.80;;;;;;4893625;29;20250;-75
2024/01/18 13:01:53;;;;;;;5.10;4.30;;;12.60;75.80;;;;;;4895252;29;20195;-75
2024/01/18 13:04:35;;;;;;;6.50;4.30;;;12.60;76.00;;;;;;4894601;29;20246;-76
2024/01/18 13:07:11;;;;;;;5.33;3.80;;;12.60;76.10;;;;;;4933517;29;20192;-76
2024/01/18 13:09:37;;;;;;;4.83;4.00;;;12.60;76.00;;;;;;4935455;28;20253;-75
2024/01/18 13:12:03;;;;;;;4.83;4.30;;;12.60;76.10;;;;;;4947036;29;20201;-76
2024/01/18 13:14:30;;;;;;;4.60;3.70;;;12.60;76.00;;;;;;4915884;29;20313;-76
2024/01/18 13:16:57;;;;;;;4.70;4.00;;;12.60;76.00;;;;;;4914412;29;20278;-75
2024/01/18 13:19:24;;;;;;;4.73;3.97;;;12.60;76.10;;;;;;4916354;29;20189;-76
2024/01/18 13:21:52;;;;;;;4.83;3.83;;;12.60;76.00;;;;;;4916000;29;20190;-76
2024/01/18 13:24:19;;;;;;;6.13;3.93;;;12.60;76.10;;;;;;4917413;29;20220;-76
2024/01/18 13:26:47;;;;;;;4.90;3.90;;;12.60;76.10;;;;;;4916305;29;20197;-76
2024/01/18 13:29:13;;;;;;;6.17;3.97;;;12.60;76.30;;;;;;4916666;29;20333;-75
2024/01/18 13:31:40;;;;;;;6.40;4.47;;;12.60;76.30;;;;;;4914032;29;20451;-76
2024/01/18 13:34:05;;;;;;;4.60;3.50;;;12.60;76.30;;;;;;4908679;29;20187;-75
2024/01/18 13:36:32;;;;;;;4.23;3.70;;;12.60;76.10;;;;;;4910463;29;20264;-76
2024/01/18 13:38:58;;;;;;;4.37;3.83;;;12.60;76.30;;;;;;4908483;29;20201;-76
2024/01/18 13:41:28;;;;;;;5.20;3.80;;;12.50;76.10;;;;;;4909771;29;20186;-76
2024/01/18 13:43:54;;;;;;;5.20;3.60;;;12.60;76.20;;;;;;4910851;29;20305;-76
2024/01/18 13:46:21;;;;;;;5.17;3.67;;;12.60;76.20;;;;;;4909918;29;20182;-75
2024/01/18 13:48:47;;;;;;;4.20;3.60;;;12.60;76.10;;;;;;4908589;29;20321;-75
2024/01/18 13:51:15;;;;;;;4.40;3.83;;;12.50;76.00;;;;;;4908819;29;20646;-75
2024/01/18 13:53:42;;;;;;;4.80;3.70;;;12.60;76.10;;;;;;4906269;29;20433;-75
2024/01/18 13:56:08;;;;;;;4.43;3.47;;;12.50;76.10;;;;;;4905369;29;20173;-75
2024/01/18 13:58:34;;;;;;;4.20;3.43;;;12.50;76.10;;;;;;4907010;29;20413;-75
2024/01/18 14:01:00;;;;;;;4.30;3.37;;;12.50;76.10;;;;;;4901275;29;20192;-75
2024/01/18 14:03:26;;;;;;;4.00;3.57;;;12.50;76.10;;;;;;4938653;28;20200;-75
2024/01/18 14:05:51;;;;;;;4.43;3.60;;;12.50;76.20;;;;;;4907248;29;20182;-75
2024/01/18 14:08:17;;;;;;;4.27;3.47;;;12.50;76.30;;;;;;4905884;29;20189;-75
2024/01/18 14:10:44;;;;;;;4.50;3.50;;;12.50;76.20;;;;;;4906776;29;20208;-75
2024/01/18 14:13:10;;;;;;;4.97;3.40;;;12.50;76.30;;;;;;4907058;29;20183;-75
2024/01/18 14:15:36;;;;;;;5.17;3.37;;;12.50;76.30;;;;;;4907684;29;20615;-75
2024/01/18 14:18:03;;;;;;;4.07;3.40;;;12.50;76.40;;;;;;4908010;29;20260;-75
2024/01/18 14:20:29;;;;;;;5.70;3.23;;;12.50;76.60;;;;;;4910222;29;20191;-75
2024/01/18 14:22:55;;;;;;;3.67;3.33;;;12.50;76.60;;;;;;4914081;29;20631;-76
2024/01/18 14:25:21;;;;;;;3.57;2.87;;;12.50;76.60;;;;;;4912154;29;20455;-75
2024/01/18 14:27:47;;;;;;;3.90;3.30;;;12.50;76.70;;;;;;4908832;29;20762;-75
2024/01/18 14:30:14;;;;;;;3.33;3.03;;;12.50;76.70;;;;;;4906184;29;20183;-75
2024/01/18 14:32:42;;;;;;;3.53;3.20;;;12.50;76.70;;;;;;4911956;29;20607;-75
2024/01/18 14:35:11;;;;;;;4.77;3.23;;;12.50;76.80;;;;;;4916304;29;20188;-75
2024/01/18 14:37:37;;;;;;;3.23;2.93;;;12.40;76.80;;;;;;4912073;29;20349;-75
2024/01/18 14:40:08;;;;;;;3.43;2.70;;;12.50;76.90;;;;;;4910440;29;20183;-75
2024/01/18 14:42:34;;;;;;;3.37;2.80;;;12.40;76.90;;;;;;4907985;29;20296;-75
2024/01/18 14:45:00;;;;;;;3.43;3.10;;;12.40;76.90;;;;;;4907043;29;20219;-75
2024/01/18 14:47:27;;;;;;;4.17;3.20;;;12.40;77.00;;;;;;4931185;29;20192;-76
2024/01/18 14:49:53;;;;;;;3.10;2.77;;;12.50;77.10;;;;;;4925101;28;20284;-76
2024/01/18 14:52:20;;;;;;;4.10;3.27;;;12.50;77.30;;;;;;4906761;29;20182;-75
2024/01/18 14:54:53;;;;;;;4.60;3.13;;;12.50;77.50;;;;;;4908325;29;20272;-75
2024/01/18 14:57:20;;;;;;;4.20;2.87;;;12.50;77.60;;;;;;4909101;29;20452;-75
2024/01/18 14:59:46;;;;;;;4.63;3.10;;;12.50;77.80;;;;;;4906413;29;20256;-75
2024/01/18 15:02:15;;;;;;;5.63;2.97;;;12.50;77.90;;;;;;4908521;29;20244;-75
2024/01/18 15:04:44;;;;;;;3.97;2.83;;;12.50;78.10;;;;;;4906568;29;20587;-75
2024/01/18 15:07:11;;;;;;;4.37;2.97;;;12.50;78.30;;;;;;4891933;29;20192;-75
2024/01/18 15:09:38;;;;;;;4.73;3.23;;;12.50;78.40;;;;;;4891159;29;20181;-75
2024/01/18 15:12:06;;;;;;;6.47;3.13;;;12.50;78.40;;;;;;4890545;29;20485;-75
2024/01/18 15:14:32;;;;;;;4.57;3.10;;;12.50;78.50;;;;;;4892979;29;20477;-75
2024/01/18 15:16:57;;;;;;;3.97;3.00;;;12.50;78.50;;;;;;4891587;29;20350;-75
2024/01/18 15:19:24;;;;;;;4.10;2.93;;;12.50;78.50;;;;;;4889580;29;20192;-74
2024/01/18 15:21:51;;;;;;;4.60;2.93;;;12.50;78.60;;;;;;4889784;29;20624;-74
2024/01/18 15:24:17;;;;;;;5.20;3.10;;;12.50;78.50;;;;;;4890742;29;20525;-74
2024/01/18 15:26:43;;;;;;;4.43;3.10;;;12.50;78.50;;;;;;4895836;29;20189;-74
2024/01/18 15:29:09;;;;;;;4.30;2.60;;;12.50;78.60;;;;;;4904022;29;20181;-74
2024/01/18 15:31:36;;;;;;;3.77;2.60;;;12.50;78.60;;;;;;4899909;29;20238;-75
2024/01/18 15:34:03;;;;;;;5.53;2.73;;;12.50;78.70;;;;;;4899098;29;20287;-75
2024/01/18 15:36:29;;;;;;;5.47;3.03;;;12.50;78.90;;;;;;4899506;29;20189;-75
2024/01/18 15:38:55;;;;;;;6.27;2.70;;;12.50;79.00;;;;;;4893918;29;20184;-74
2024/01/18 15:41:23;;;;;;;4.73;2.73;;;12.50;78.90;;;;;;4892434;29;20190;-74
2024/01/18 15:43:48;;;;;;;5.30;3.13;;;12.50;78.90;;;;;;4890386;29;20611;-74
2024/01/18 15:46:19;;;;;;;4.10;2.60;;;12.50;78.90;;;;;;4891733;29;20217;-74
2024/01/18 15:48:45;;;;;;;3.70;2.60;;;12.50;78.90;;;;;;4907866;29;20627;-74
2024/01/18 15:51:15;;;;;;;5.90;2.77;;;12.50;78.90;;;;;;4926379;29;20291;-75
2024/01/18 15:53:41;;;;;;;4.90;2.80;;;12.40;78.80;;;;;;4928369;29;20186;-74
2024/01/18 15:56:07;;;;;;;3.57;2.70;;;12.40;78.70;;;;;;4930100;29;20242;-74
2024/01/18 15:58:34;;;;;;;4.63;2.90;;;12.50;78.80;;;;;;4930317;29;20189;-74
2024/01/18 16:01:01;;;;;;;3.80;2.40;;;12.40;78.80;;;;;;4896482;29;20182;-74
2024/01/18 16:03:27;;;;;;;4.30;2.90;;;12.40;78.80;;;;;;4928905;29;20233;-74
2024/01/18 16:05:53;;;;;;;3.37;2.60;;;12.40;78.80;;;;;;4928368;29;20405;-74
2024/01/18 16:08:19;;;;;;;4.47;2.87;;;12.40;78.90;;;;;;4928321;29;20185;-74
2024/01/18 16:10:44;;;;;;;4.23;2.70;;;12.40;79.00;;;;;;4926890;29;20241;-74
2024/01/18 16:13:10;;;;;;;3.90;2.23;;;12.40;79.00;;;;;;4928118;29;20188;-74
2024/01/18 16:15:37;;;;;;;5.63;2.90;;;12.40;79.00;;;;;;4925352;29;20449;-75
2024/01/18 16:18:29;;;;;;;4.03;2.67;;;12.40;79.10;;;;;;4926728;29;20438;-75
2024/01/18 16:20:57;;;;;;;5.73;2.67;;;12.40;79.10;;;;;;4895732;29;20567;-75
2024/01/18 16:23:23;;;;;;;4.03;2.80;;;12.40;79.20;;;;;;4897613;29;20196;-74
2024/01/18 16:25:49;;;;;;;6.67;2.77;;;12.40;79.20;;;;;;4896525;29;20571;-75
2024/01/18 16:28:17;;;;;;;2.87;2.43;;;12.40;79.20;;;;;;4897048;29;20344;-74
2024/01/18 16:30:44;;;;;;;4.27;2.70;;;12.40;79.20;;;;;;4896018;29;20187;-75
2024/01/18 16:33:10;;;;;;;3.30;2.50;;;12.40;79.30;;;;;;4894175;29;20379;-75
2024/01/18 16:35:36;;;;;;;5.50;2.60;;;12.30;79.30;;;;;;4911862;29;20191;-75
2024/01/18 16:38:03;;;;;;;4.90;2.40;;;12.40;79.40;;;;;;4895881;29;20187;-74
2024/01/18 16:40:35;;;;;;;3.70;2.50;;;12.40;79.50;;;;;;4894189;29;20192;-75
2024/01/18 16:43:03;;;;;;;4.40;2.83;;;12.30;79.50;;;;;;4894432;29;20185;-75
2024/01/18 16:45:29;;;;;;;4.53;2.40;;;12.30;79.50;;;;;;4924837;29;20229;-75
2024/01/18 16:47:55;;;;;;;3.03;2.30;;;12.30;79.50;;;;;;4895892;29;20183;-75
2024/01/18 16:50:21;;;;;;;4.10;2.60;;;12.30;79.60;;;;;;4896197;29;20216;-74
2024/01/18 16:52:47;;;;;;;3.20;2.43;;;12.30;79.60;;;;;;4900454;29;20182;-75
2024/01/18 16:55:14;;;;;;;4.67;2.70;;;12.30;79.60;;;;;;4902995;29;20224;-75
2024/01/18 16:57:41;;;;;;;3.60;2.67;;;12.30;79.70;;;;;;4898845;29;20522;-74
2024/01/18 17:00:09;;;;;;;3.30;2.50;;;12.30;79.70;;;;;;4895398;29;20192;-74
2024/01/18 17:02:37;;;;;;;4.23;2.23;;;12.30;79.70;;;;;;4894721;29;20438;-75
2024/01/18 17:05:03;;;;;;;2.70;2.17;;;12.30;79.80;;;;;;4895543;29;20226;-74
2024/01/18 17:07:29;;;;;;;3.43;2.40;;;12.30;79.90;;;;;;4893493;29;20180;-74
2024/01/18 17:09:55;;;;;;;3.00;2.20;;;12.30;79.90;;;;;;4892936;29;20200;-75
2024/01/18 17:12:21;;;;;;;3.57;2.67;;;12.30;80.00;;;;;;4891973;29;20591;-75
2024/01/18 17:14:47;;;;;;;2.77;2.30;;;12.30;80.10;;;;;;4891298;29;20238;-74
2024/01/18 17:17:16;;;;;;;3.47;2.33;;;12.30;80.10;;;;;;4894294;29;20500;-74
2024/01/18 17:19:42;;;;;;;3.60;2.63;;;12.30;80.30;;;;;;4893812;29;20192;-75
2024/01/18 17:22:09;;;;;;;3.53;2.47;;;12.30;80.30;;;;;;4892391;29;20193;-74
2024/01/18 17:24:36;;;;;;;3.93;2.57;;;12.30;80.40;;;;;;4896279;29;20255;-74
2024/01/18 17:27:03;;;;;;;3.57;2.57;;;12.30;80.50;;;;;;4894111;29;20236;-75
2024/01/18 17:29:29;;;;;;;5.17;2.77;;;12.30;80.50;;;;;;4893916;29;20216;-75
2024/01/18 17:31:55;;;;;;;4.37;2.80;;;12.30;80.80;;;;;;4894772;29;20239;-74
2024/01/18 17:34:24;;;;;;;5.10;2.80;;;12.30;80.80;;;;;;4894576;29;20181;-74
2024/01/18 17:36:53;;;;;;;4.73;2.57;;;12.30;81.00;;;;;;4894414;29;20404;-74
2024/01/18 17:39:18;;;;;;;3.47;2.27;;;12.30;80.90;;;;;;4895112;29;20194;-74
2024/01/18 17:41:45;;;;;;;3.50;2.60;;;12.30;81.00;;;;;;4894300;29;20196;-74
2024/01/18 17:44:11;;;;;;;3.83;2.60;;;12.30;81.00;;;;;;4894470;29;20255;-74
2024/01/18 17:46:37;;;;;;;5.70;2.60;;;12.30;81.10;;;;;;4885928;29;20194;-74
2024/01/18 17:49:03;;;;;;;5.90;2.47;;;12.20;81.00;;;;;;4894823;29;20559;-74
2024/01/18 17:51:29;;;;;;;4.97;2.70;;;12.20;81.00;;;;;;4895422;29;20659;-74
2024/01/18 17:53:55;;;;;;;6.90;2.57;;;12.30;81.10;;;;;;4896247;29;20586;-75
2024/01/18 17:56:21;;;;;;;4.33;3.07;;;12.30;81.10;;;;;;4898023;29;20298;-74
2024/01/18 17:58:47;;;;;;;3.87;2.47;;;12.30;81.00;;;;;;4896090;29;20274;-74
2024/01/18 18:01:14;;;;;;;5.03;3.03;;;12.20;81.00;;;;;;4897761;29;20369;-75
2024/01/18 18:03:40;;;;;;;5.40;2.70;;;12.20;81.10;;;;;;4895907;29;20210;-75
2024/01/18 18:06:06;;;;;;;5.63;2.70;;;12.20;81.10;;;;;;4898371;29;20293;-75
2024/01/18 18:08:34;;;;;;;4.77;2.60;;;12.20;81.00;;;;;;4899572;29;20218;-75
2024/01/18 18:11:04;;;;;;;3.67;2.73;;;12.20;81.00;;;;;;4901325;29;20183;-75
2024/01/18 18:13:32;;;;;;;6.00;2.73;;;12.20;81.10;;;;;;4901352;29;20184;-75
2024/01/18 18:15:58;;;;;;;4.13;2.60;;;12.20;81.30;;;;;;4896133;29;20563;-72
2024/01/18 18:18:24;;;;;;;8.37;3.03;;;12.20;81.30;;;;;;4895225;29;20187;-74
2024/01/18 18:20:49;;;;;;;5.67;2.67;;;12.30;86.10;;;;;;4895206;29;20188;-74
2024/01/18 18:23:15;;;;;;;8.37;3.20;;;12.40;83.30;;;;;;4895425;29;20326;-74
2024/01/18 18:26:07;;;;;;;;;;;;;;;;;;;;;
2024/01/18 18:28:44;;;;;;;4.17;2.67;;;12.40;83.80;;;;;;4910710;29;20190;-73
2024/01/18 18:31:20;;;;;;;9.73;2.93;;;12.30;83.80;;;;;;4893012;29;20446;-73
2024/01/18 18:33:46;;;;;;;4.13;3.00;;;12.30;83.90;;;;;;4893700;29;20190;-73
2024/01/18 18:36:12;;;;;;;4.27;2.70;;;12.30;84.00;;;;;;4893686;29;20188;-73
2024/01/18 18:38:38;;;;;;;8.23;3.43;;;12.30;84.00;;;;;;4893510;29;20323;-72
2024/01/18 18:41:20;;;;;;;4.87;3.10;;;12.30;84.20;;;;;;4894970;29;20185;-74
2024/01/18 18:43:46;;;;;;;5.67;2.80;;;12.30;84.30;;;;;;4893981;29;20219;-74
2024/01/18 18:46:13;;;;;;;7.43;2.70;;;12.30;84.30;;;;;;4895517;29;20184;-74
2024/01/18 18:48:40;;;;;;;5.10;3.30;;;12.30;84.30;;;;;;4894677;29;20570;-76
2024/01/18 18:51:09;;;;;;;7.17;3.30;;;12.30;84.40;;;;;;4895649;29;20196;-76